Bentley, Michigan
Current Conditions -  °F | °C
As of 9:14 AM on Wednesday 28 Jan 2015 (Local Time) from KIKW Reporting Station
Clear Clear  
Wind Chill: 10°   Ceiling: Unl
Heat Index: 10°   Visibility: 10mi
Dew Point:   Wind: 0mph
Humidity: 81%   Direction: NA
Pressure: 30.33"   Gusts: NA
Location:  43.95°N, 84.13°W
Report Text: KIKW 281414Z AUTO 00000KT 10SM CLR M12/M15 A3033 RMK AO2 T11251151
Loading
Personal Weather Stations






























Interactive Weather Map New forecast layout! Learn more

10-Day Weather Forecast

Advertisements
Track Severe Weather on mobile